Terminal Aerodrome Forecast
Issued by NWS

Home | Current Version | Previous Version | Text Only | Print | Product List | Glossary On
Versions: 1 2 3 4 5 6 7 8 9 10 11 12
000
FTUS45 KABQ 250532
TAFFMN
TAF
KFMN 250532Z 2506/2606 26011KT P6SM FEW140
     FM251700 25012G22KT P6SM FEW140
     FM252000 26022G34KT P6SM SCT140
     FM260200 26011KT P6SM FEW140=

USA.gov is the U.S. government's official web portal to all federal, state and local government web resources and services.